Time;durP1;ratioP1;P1;durP2;ratioP2;P2;SDS_P1;SDS_P2;PMS_P1;PMS_P2;Temp;Humidity;BMP_temperature;BMP_pressure;BME280_temperature;BME280_humidity;BME280_pressure;Samples;Min_cycle;Max_cycle;Signal;HPM_P1;HPM_P2
2023/08/02 00:01:23;;;;;;;9.80;4.45;;;;;;;19.23;70.75;100035.88;10532073;28;20052;-76
2023/08/02 00:06:27;;;;;;;7.20;4.00;;;;;;;19.31;70.83;100031.31;10497432;28;20041;-76
2023/08/02 00:11:29;;;;;;;6.90;4.38;;;;;;;19.15;71.71;100025.72;10529808;28;20052;-75
2023/08/02 00:16:33;;;;;;;6.88;4.00;;;;;;;19.10;71.78;100037.09;10513700;28;20044;-76
2023/08/02 00:21:35;;;;;;;6.65;4.18;;;;;;;19.14;72.01;100030.47;10517961;28;20063;-75
2023/08/02 00:26:37;;;;;;;7.57;4.85;;;;;;;19.12;72.07;100018.88;10513956;28;20037;-75
2023/08/02 00:31:39;;;;;;;7.32;5.22;;;;;;;19.15;71.81;100014.59;10521294;28;20048;-76
2023/08/02 00:36:44;;;;;;;6.40;4.47;;;;;;;19.10;72.16;100010.09;10499414;28;20040;-75
2023/08/02 00:41:47;;;;;;;8.57;4.72;;;;;;;19.06;72.29;100016.69;10479355;28;20044;-76
2023/08/02 00:47:14;;;;;;;10.98;5.68;;;;;;;18.88;73.08;100010.63;10520194;28;20045;-76
2023/08/02 00:52:16;;;;;;;8.27;5.28;;;;;;;18.87;73.75;100000.66;10502227;28;20056;-75
2023/08/02 00:57:18;;;;;;;8.85;4.60;;;;;;;18.88;73.74;99991.16;10505730;28;20051;-76
2023/08/02 01:02:21;;;;;;;6.70;4.75;;;;;;;18.76;74.10;100005.09;10506472;28;20063;-76
2023/08/02 01:07:44;;;;;;;5.40;4.22;;;;;;;18.89;73.62;99990.00;10519966;28;20511;-76
2023/08/02 01:12:48;;;;;;;8.93;5.00;;;;;;;18.68;74.72;99987.41;10505759;28;20039;-76
2023/08/02 01:17:52;;;;;;;9.10;4.63;;;;;;;18.99;73.14;99983.94;10490606;28;20040;-76
2023/08/02 01:22:55;;;;;;;5.95;4.38;;;;;;;18.82;74.02;99981.44;10508424;28;20040;-76
2023/08/02 01:28:00;;;;;;;7.80;4.03;;;;;;;19.00;73.29;99973.63;10510144;28;20490;-75
2023/08/02 01:33:03;;;;;;;5.93;3.92;;;;;;;18.96;73.26;99974.34;10493730;28;20077;-76
2023/08/02 01:38:06;;;;;;;5.40;3.63;;;;;;;18.86;73.98;99972.03;10473118;28;20522;-76
2023/08/02 01:43:08;;;;;;;6.35;4.10;;;;;;;18.78;74.75;99970.25;10511702;28;20044;-76
2023/08/02 01:48:10;;;;;;;5.10;3.75;;;;;;;18.75;74.68;99965.38;10512082;28;20037;-76
2023/08/02 01:53:13;;;;;;;8.00;4.82;;;;;;;18.60;75.51;99954.97;10491159;28;20051;-76
2023/08/02 01:58:15;;;;;;;4.40;3.78;;;;;;;18.42;75.91;99962.78;10507061;28;20040;-76
2023/08/02 02:03:17;;;;;;;7.57;4.47;;;;;;;18.56;76.25;99959.59;10505883;28;20055;-76
2023/08/02 02:08:20;;;;;;;7.00;4.03;;;;;;;18.52;76.25;99955.91;10501197;28;20056;-76
2023/08/02 02:13:24;;;;;;;5.78;4.05;;;;;;;18.73;75.71;99958.53;10483204;28;20538;-75
2023/08/02 02:18:26;;;;;;;6.90;4.47;;;;;;;19.12;73.81;99959.69;10510230;28;20036;-75
2023/08/02 02:23:29;;;;;;;7.40;4.45;;;;;;;19.15;73.62;99956.19;10523842;28;20047;-75
2023/08/02 02:28:31;;;;;;;4.68;3.40;;;;;;;19.14;73.27;99954.56;10495410;28;20565;-75
2023/08/02 02:33:33;;;;;;;5.32;3.97;;;;;;;19.14;74.03;99949.81;10488153;28;20036;-75
2023/08/02 02:38:35;;;;;;;7.20;4.38;;;;;;;19.44;73.21;99950.22;10511835;28;20040;-75
2023/08/02 02:43:39;;;;;;;5.60;3.53;;;;;;;19.38;72.60;99953.63;10488810;28;20040;-75
2023/08/02 02:48:41;;;;;;;8.75;4.28;;;;;;;19.75;71.99;99949.44;10519571;28;20181;-75
2023/08/02 02:53:44;;;;;;;7.68;4.10;;;;;;;20.58;68.70;99947.44;10521753;28;20059;-76
2023/08/02 02:58:46;;;;;;;4.05;3.08;;;;;;;20.74;68.53;99937.03;10517748;28;20492;-75
2023/08/02 03:03:48;;;;;;;4.93;3.83;;;;;;;20.73;67.88;99956.91;10518740;28;20044;-75
2023/08/02 03:08:50;;;;;;;5.72;3.38;;;;;;;20.88;67.52;99953.25;10518987;28;20036;-75
2023/08/02 03:13:53;;;;;;;5.53;4.05;;;;;;;21.28;66.18;99940.91;10523584;28;20037;-75
2023/08/02 03:18:55;;;;;;;4.60;3.85;;;;;;;21.56;65.81;99937.81;10520802;28;20052;-75
2023/08/02 03:23:57;;;;;;;4.65;3.80;;;;;;;21.90;64.76;99936.00;10523538;28;20044;-76
2023/08/02 03:28:59;;;;;;;6.32;3.95;;;;;;;21.53;65.80;99939.38;10516139;28;20044;-76
2023/08/02 03:34:01;;;;;;;5.70;3.58;;;;;;;21.42;65.98;99932.00;10502482;28;20033;-75
2023/08/02 03:39:04;;;;;;;5.65;3.58;;;;;;;21.86;65.59;99927.53;10497291;28;20048;-75
2023/08/02 03:44:06;;;;;;;8.07;4.18;;;;;;;21.66;65.52;99926.03;10489239;28;20506;-75
2023/08/02 03:49:08;;;;;;;6.90;3.80;;;;;;;22.39;63.73;99913.63;10500627;28;20406;-76
2023/08/02 03:54:10;;;;;;;5.30;3.80;;;;;;;23.30;60.49;99922.72;10518413;28;20052;-76
2023/08/02 03:59:13;;;;;;;6.85;4.28;;;;;;;23.30;60.63;99922.72;10501078;28;20053;-76
2023/08/02 04:04:15;;;;;;;6.80;4.60;;;;;;;23.17;60.83;99925.78;10523615;28;20052;-76
2023/08/02 04:09:17;;;;;;;8.10;4.45;;;;;;;24.08;59.36;99922.59;10519679;28;20052;-76
2023/08/02 04:14:19;;;;;;;5.63;4.13;;;;;;;22.72;62.21;99920.41;10509014;28;20040;-76
2023/08/02 04:19:22;;;;;;;5.13;3.70;;;;;;;23.09;61.84;99914.91;10520183;28;20041;-76
2023/08/02 04:24:24;;;;;;;5.03;4.53;;;;;;;23.29;61.14;99912.72;10516337;28;20518;-75
2023/08/02 04:29:26;;;;;;;5.10;4.10;;;;;;;23.56;60.69;99907.75;10526183;28;20393;-76
2023/08/02 04:34:28;;;;;;;8.05;3.97;;;;;;;24.54;58.48;99904.09;10483365;28;20045;-76
2023/08/02 04:39:31;;;;;;;9.15;3.90;;;;;;;25.05;56.55;99905.91;10528795;28;20040;-75
2023/08/02 04:44:33;;;;;;;6.22;4.15;;;;;;;24.68;57.88;99913.78;10527187;28;20048;-75
2023/08/02 04:49:35;;;;;;;7.80;4.18;;;;;;;24.26;58.43;99901.09;10530318;28;20380;-76
2023/08/02 04:54:38;;;;;;;7.15;4.38;;;;;;;24.91;56.65;99898.22;10528109;28;20048;-76
2023/08/02 04:59:40;;;;;;;4.93;3.88;;;;;;;24.96;56.67;99888.59;10529201;28;20036;-76
2023/08/02 05:04:42;;;;;;;8.32;4.05;;;;;;;24.87;57.67;99891.81;10526315;28;20039;-76
2023/08/02 05:09:45;;;;;;;6.45;3.58;;;;;;;25.70;55.54;99885.16;10514483;28;20040;-75
2023/08/02 05:14:47;;;;;;;7.57;3.80;;;;;;;26.03;54.26;99881.13;10524701;28;20048;-75
2023/08/02 05:19:49;;;;;;;6.82;4.10;;;;;;;25.91;55.18;99892.78;10496333;28;20056;-76
2023/08/02 05:24:52;;;;;;;6.40;3.60;;;;;;;26.02;53.91;99884.31;10520310;28;20048;-75
2023/08/02 05:29:54;;;;;;;5.78;3.75;;;;;;;27.01;52.31;99886.03;10518644;28;20036;-75
2023/08/02 05:34:57;;;;;;;5.38;3.97;;;;;;;27.57;51.31;99884.03;10503211;28;20048;-75
2023/08/02 05:39:59;;;;;;;5.05;4.10;;;;;;;26.92;52.47;99894.91;10489576;28;20043;-75
2023/08/02 05:45:01;;;;;;;7.22;4.38;;;;;;;27.20;51.29;99881.88;10528076;28;20048;-75
2023/08/02 05:50:04;;;;;;;4.88;3.88;;;;;;;27.50;50.35;99870.81;10527589;28;20446;-75
2023/08/02 05:55:07;;;;;;;8.07;3.80;;;;;;;28.10;49.01;99874.31;10501645;28;20052;-75
2023/08/02 06:00:09;;;;;;;6.32;3.28;;;;;;;27.65;49.38;99879.19;10508100;28;20051;-75
2023/08/02 06:05:12;;;;;;;4.97;3.60;;;;;;;27.89;48.70;99858.41;10492496;28;20049;-75
2023/08/02 06:10:14;;;;;;;4.20;3.50;;;;;;;27.97;48.59;99865.59;10508619;28;20047;-76
2023/08/02 06:15:16;;;;;;;4.15;3.28;;;;;;;26.80;50.83;99863.59;10524656;28;20052;-75
2023/08/02 06:20:18;;;;;;;3.92;3.50;;;;;;;26.43;52.16;99865.78;10525209;28;20052;-76
2023/08/02 06:25:20;;;;;;;4.80;3.58;;;;;;;25.73;54.46;99869.50;10525114;28;20521;-76
2023/08/02 06:30:22;;;;;;;5.32;4.30;;;;;;;25.15;55.44;99874.25;10524105;28;20551;-75
2023/08/02 06:35:25;;;;;;;5.43;4.10;;;;;;;24.69;57.05;99876.09;10518811;28;20048;-76
2023/08/02 06:40:27;;;;;;;5.90;3.85;;;;;;;24.49;57.62;99864.41;10520693;28;20392;-76
2023/08/02 06:45:29;;;;;;;4.55;3.92;;;;;;;24.39;58.22;99870.75;10500062;28;20446;-75
2023/08/02 06:50:36;;;;;;;5.57;2.95;;;;;;;24.42;58.22;99867.16;10500397;28;20045;-76
2023/08/02 06:55:38;;;;;;;4.15;3.50;;;;;;;24.53;58.72;99865.22;10521353;28;20052;-76
2023/08/02 07:00:41;;;;;;;4.75;3.90;;;;;;;24.32;58.44;99880.75;10525034;28;20044;-76
2023/08/02 07:05:44;;;;;;;6.63;4.10;;;;;;;24.26;58.84;99879.47;10499858;28;20521;-76
2023/08/02 07:10:46;;;;;;;5.63;3.67;;;;;;;24.25;58.82;99877.06;10505182;28;20036;-77
2023/08/02 07:15:49;;;;;;;4.38;3.25;;;;;;;24.19;59.05;99868.22;10505999;28;20044;-74
2023/08/02 07:20:51;;;;;;;4.50;3.58;;;;;;;24.11;59.50;99883.38;10524377;28;20506;-74
2023/08/02 07:25:56;;;;;;;4.00;3.33;;;;;;;24.09;59.97;99877.38;10499328;28;20043;-74
2023/08/02 07:31:11;;;;;;;4.60;3.67;;;;;;;23.90;60.75;99883.25;10482194;28;20036;-74
2023/08/02 07:36:19;;;;;;;5.85;3.42;;;;;;;24.16;59.38;99869.03;10493002;28;20037;-75
2023/08/02 07:41:21;;;;;;;4.68;3.63;;;;;;;24.39;58.93;99877.19;10503345;28;20048;-74
2023/08/02 07:46:23;;;;;;;5.07;3.67;;;;;;;25.02;57.32;99869.44;10523033;28;20044;-75
2023/08/02 07:51:26;;;;;;;5.07;3.35;;;;;;;25.61;55.87;99864.25;10525574;28;20496;-76
2023/08/02 07:56:28;;;;;;;4.65;3.38;;;;;;;25.82;54.62;99864.28;10513664;28;20537;-76
2023/08/02 08:01:30;;;;;;;6.70;3.97;;;;;;;25.27;57.11;99864.66;10503061;28;20041;-75
2023/08/02 08:06:32;;;;;;;6.20;3.70;;;;;;;25.91;55.34;99859.03;10530400;28;20059;-77
2023/08/02 08:11:34;;;;;;;4.55;3.78;;;;;;;25.82;55.59;99864.28;10527904;28;20037;-78
2023/08/02 08:16:36;;;;;;;5.00;3.53;;;;;;;25.82;55.33;99869.88;10526597;28;20043;-77
2023/08/02 08:21:38;;;;;;;7.95;4.20;;;;;;;25.66;55.81;99875.09;10531921;28;20552;-75
2023/08/02 08:26:41;;;;;;;4.70;3.70;;;;;;;25.73;55.71;99875.94;10518733;28;20044;-77
2023/08/02 08:31:43;;;;;;;4.50;3.80;;;;;;;25.69;55.24;99871.53;10508461;28;20057;-75
2023/08/02 08:36:46;;;;;;;4.07;3.45;;;;;;;25.62;55.35;99875.09;10512676;28;20044;-77
2023/08/02 08:41:48;;;;;;;5.45;3.78;;;;;;;26.33;53.94;99875.00;10530938;28;20048;-76
2023/08/02 08:46:51;;;;;;;4.65;3.78;;;;;;;26.59;54.04;99865.31;10521057;28;20053;-77
2023/08/02 08:51:57;;;;;;;6.47;3.90;;;;;;;26.26;53.32;99874.25;10512295;28;20048;-78
2023/08/02 08:57:00;;;;;;;4.43;3.50;;;;;;;26.30;53.58;99875.03;10512036;28;20051;-78
2023/08/02 09:02:02;;;;;;;3.72;3.38;;;;;;;26.22;54.51;99868.63;10509746;28;20067;-77
2023/08/02 09:07:05;;;;;;;4.45;3.20;;;;;;;26.19;54.04;99858.16;10505939;28;20044;-78
2023/08/02 09:12:07;;;;;;;4.95;3.20;;;;;;;25.80;54.96;99870.28;10525709;28;20522;-78
2023/08/02 09:17:09;;;;;;;3.63;3.22;;;;;;;25.81;53.90;99873.91;10528132;28;20037;-77
2023/08/02 09:22:14;;;;;;;6.00;3.63;;;;;;;25.75;54.55;99879.13;10518525;28;20130;-77
2023/08/02 09:27:18;;;;;;;4.38;3.05;;;;;;;25.61;55.70;99875.50;10523532;28;20044;-76
2023/08/02 09:32:21;;;;;;;6.75;3.10;;;;;;;25.85;55.33;99872.69;10501331;28;20032;-76
2023/08/02 09:37:35;;;;;;;4.30;3.72;;;;;;;25.84;53.50;99873.09;10526449;28;20045;-76
2023/08/02 09:42:37;;;;;;;6.75;3.22;;;;;;;26.20;52.62;99871.03;10471293;28;20538;-75
2023/08/02 09:47:39;;;;;;;6.70;3.38;;;;;;;26.15;52.37;99877.88;10523432;28;20036;-76
2023/08/02 09:52:41;;;;;;;5.78;3.00;;;;;;;26.02;52.18;99864.63;10528004;28;20048;-76
2023/08/02 09:57:45;;;;;;;3.85;3.30;;;;;;;26.29;52.87;99884.66;10499957;28;20045;-76
2023/08/02 10:02:48;;;;;;;4.72;3.00;;;;;;;25.68;53.10;99895.97;10527315;28;20063;-75
2023/08/02 10:07:54;;;;;;;3.55;3.13;;;;;;;25.76;53.90;99879.94;10536649;28;20041;-76
2023/08/02 10:13:05;;;;;;;4.38;3.30;;;;;;;25.63;54.04;99876.69;10529114;28;20037;-76
2023/08/02 10:18:08;;;;;;;5.88;3.45;;;;;;;25.74;54.18;99866.28;10529830;28;20048;-75
2023/08/02 10:23:10;;;;;;;4.38;3.35;;;;;;;26.01;54.06;99871.47;10518761;28;20114;-76
2023/08/02 10:28:13;;;;;;;3.50;3.03;;;;;;;26.41;52.22;99861.75;10504469;28;20128;-74
2023/08/02 10:33:20;;;;;;;9.77;4.18;;;;;;;26.49;52.92;99860.50;10527244;28;20056;-74
2023/08/02 10:38:27;;;;;;;3.60;3.28;;;;;;;26.49;51.45;99843.63;10523534;28;20040;-74
2023/08/02 10:43:30;;;;;;;5.00;3.40;;;;;;;26.39;51.98;99847.31;10493826;28;20040;-74
2023/08/02 10:48:32;;;;;;;4.53;3.80;;;;;;;26.49;52.79;99849.25;10524824;28;20039;-75
2023/08/02 10:53:34;;;;;;;4.82;3.85;;;;;;;26.52;51.62;99862.50;10527573;28;20502;-75
2023/08/02 10:58:50;;;;;;;5.15;4.05;;;;;;;26.60;51.85;99844.41;10527702;28;20513;-75
2023/08/02 11:03:53;;;;;;;5.30;3.83;;;;;;;26.86;50.67;99847.88;10485453;28;20518;-74
2023/08/02 11:08:55;;;;;;;5.82;4.47;;;;;;;26.45;51.80;99842.84;10494900;28;20028;-74
2023/08/02 11:13:58;;;;;;;5.32;4.00;;;;;;;26.66;50.99;99831.50;10522295;28;20036;-73
2023/08/02 11:19:00;;;;;;;6.32;3.53;;;;;;;26.60;50.18;99830.31;10530729;28;20056;-73
2023/08/02 11:24:03;;;;;;;4.53;4.03;;;;;;;26.60;50.67;99832.34;10487132;28;20063;-73
2023/08/02 11:29:08;;;;;;;4.38;3.40;;;;;;;26.74;48.92;99826.66;10525232;28;20066;-74
2023/08/02 11:34:15;;;;;;;7.63;4.10;;;;;;;26.94;49.04;99824.09;10524191;28;20033;-73
2023/08/02 11:39:18;;;;;;;4.03;3.08;;;;;;;26.87;48.71;99822.13;10529048;28;20066;-73
2023/08/02 11:44:20;;;;;;;3.75;3.05;;;;;;;26.90;49.29;99815.69;10494289;28;20061;-73
2023/08/02 11:49:23;;;;;;;6.43;3.70;;;;;;;26.54;50.52;99815.06;10511063;28;20047;-73
2023/08/02 11:54:26;;;;;;;5.22;3.60;;;;;;;26.21;51.47;99822.03;10504919;28;20071;-76
2023/08/02 11:59:29;;;;;;;3.65;3.25;;;;;;;25.77;53.06;99842.19;10510006;28;20055;-79
2023/08/02 12:04:38;;;;;;;4.57;3.38;;;;;;;25.10;58.31;99845.78;10530715;28;20061;-88
2023/08/02 12:09:42;;;;;;;3.90;3.22;;;;;;;24.21;61.96;99843.41;10523202;28;20032;-73
2023/08/02 12:14:44;;;;;;;10.52;3.90;;;;;;;23.83;66.09;99852.38;10527339;28;20059;-73
2023/08/02 12:19:47;;;;;;;3.83;2.85;;;;;;;23.73;66.40;99851.09;10533697;28;20394;-72
2023/08/02 12:25:07;;;;;;;3.97;3.53;;;;;;;24.28;65.72;99849.03;10530350;28;20041;-72
2023/08/02 12:30:15;;;;;;;4.40;3.40;;;;;;;24.05;65.65;99877.34;10508569;28;20045;-72
2023/08/02 12:35:18;;;;;;;5.97;4.20;;;;;;;22.27;75.77;99872.72;10522399;28;20064;-72
2023/08/02 12:40:20;;;;;;;4.75;3.67;;;;;;;22.04;78.34;99873.94;10526039;28;20044;-71
2023/08/02 12:45:26;;;;;;;5.20;4.00;;;;;;;22.10;78.83;99884.47;10528887;28;20521;-72
2023/08/02 12:50:28;;;;;;;7.63;3.83;;;;;;;21.96;80.84;99873.03;10523679;28;20036;-72
2023/08/02 12:55:31;;;;;;;6.95;4.43;;;;;;;21.74;77.56;99874.72;10508920;28;20052;-71
2023/08/02 13:00:33;;;;;;;5.30;3.95;;;;;;;21.93;77.66;99876.59;10507031;28;20048;-72
2023/08/02 13:05:35;;;;;;;5.47;3.80;;;;;;;22.03;76.51;99903.06;10509223;28;20055;-72
2023/08/02 13:10:38;;;;;;;6.55;4.63;;;;;;;21.81;76.93;99913.09;10528537;28;20044;-79
2023/08/02 13:15:40;;;;;;;6.03;4.32;;;;;;;21.68;78.48;99906.91;10496790;28;20056;-88
2023/08/02 13:20:43;;;;;;;6.20;3.72;;;;;;;21.48;77.76;99897.81;10506055;28;20036;-77
2023/08/02 13:25:45;;;;;;;3.67;3.20;;;;;;;21.21;77.76;99898.91;10496805;28;20048;-77
2023/08/02 13:30:47;;;;;;;4.18;3.30;;;;;;;20.94;78.79;99901.56;10525232;28;20032;-75
2023/08/02 13:35:50;;;;;;;8.13;3.85;;;;;;;20.47;79.39;99907.38;10529846;28;20028;-75
2023/08/02 13:40:52;;;;;;;4.85;3.00;;;;;;;20.13;81.91;99897.81;10524068;28;20051;-76
2023/08/02 13:45:55;;;;;;;4.25;3.22;;;;;;;19.91;83.73;99888.19;10517066;28;20542;-78
2023/08/02 13:50:57;;;;;;;4.15;3.13;;;;;;;19.88;84.82;99863.84;10514983;28;20032;-75
2023/08/02 13:56:28;;;;;;;4.47;3.22;;;;;;;20.35;83.72;99866.50;10524028;28;20064;-74
2023/08/02 14:01:31;;;;;;;6.45;3.70;;;;;;;20.96;79.65;99859.34;10523558;28;20052;-74
2023/08/02 14:06:52;;;;;;;5.30;3.13;;;;;;;21.40;77.48;99853.41;10509932;28;20439;-73
2023/08/02 14:11:55;;;;;;;5.60;3.95;;;;;;;21.67;74.96;99844.66;10513592;28;20033;-73
2023/08/02 14:16:57;;;;;;;4.43;3.95;;;;;;;21.82;74.63;99845.69;10501711;28;20048;-75
2023/08/02 14:22:04;;;;;;;5.00;3.45;;;;;;;21.84;76.05;99842.53;10521443;28;20049;-75
2023/08/02 14:27:07;;;;;;;7.97;3.85;;;;;;;22.04;73.93;99843.19;10500485;28;20079;-76
2023/08/02 14:32:10;;;;;;;5.30;4.47;;;;;;;22.11;74.33;99846.94;10521071;28;20050;-75
2023/08/02 14:37:12;;;;;;;5.38;3.72;;;;;;;22.12;75.40;99858.94;10515671;28;20494;-75
2023/08/02 14:42:14;;;;;;;7.55;4.35;;;;;;;22.17;77.23;99858.59;10517013;28;20090;-78
2023/08/02 14:47:17;;;;;;;5.20;4.20;;;;;;;22.32;75.53;99857.59;10502621;28;20032;-71
2023/08/02 14:52:19;;;;;;;6.25;4.38;;;;;;;22.40;73.72;99864.91;10513246;28;20052;-71
2023/08/02 14:57:22;;;;;;;7.47;4.60;;;;;;;22.46;74.23;99852.19;10507977;28;20044;-70
2023/08/02 15:02:24;;;;;;;5.97;3.78;;;;;;;22.51;74.51;99851.84;10510665;28;20040;-71
2023/08/02 15:07:27;;;;;;;6.75;4.18;;;;;;;22.67;74.30;99854.44;10495589;28;20196;-71
2023/08/02 15:12:35;;;;;;;6.88;4.28;;;;;;;22.68;73.74;99858.03;10509052;28;20051;-70
2023/08/02 15:17:41;;;;;;;6.28;4.15;;;;;;;22.68;74.42;99866.44;10516048;28;20056;-71
2023/08/02 15:22:43;;;;;;;5.85;4.30;;;;;;;22.69;74.82;99865.25;10523344;28;20387;-71
2023/08/02 15:27:45;;;;;;;5.60;4.55;;;;;;;22.76;73.74;99854.97;10502046;28;20475;-71
2023/08/02 15:32:48;;;;;;;7.47;4.75;;;;;;;22.68;74.41;99864.44;10518024;28;20040;-70
2023/08/02 15:37:50;;;;;;;7.78;5.18;;;;;;;22.76;73.75;99845.78;10524159;28;20048;-72
2023/08/02 15:42:53;;;;;;;4.65;3.95;;;;;;;22.86;72.53;99848.69;10516547;28;20051;-75
2023/08/02 15:47:56;;;;;;;6.35;4.97;;;;;;;22.91;73.25;99844.78;10522205;28;20036;-72
2023/08/02 15:52:58;;;;;;;9.93;6.32;;;;;;;22.88;72.84;99844.72;10513809;28;20044;-74
2023/08/02 15:58:00;;;;;;;7.10;4.20;;;;;;;22.89;73.08;99835.94;10523556;28;20041;-72
2023/08/02 16:03:03;;;;;;;9.90;4.32;;;;;;;22.90;71.03;99836.72;10514071;28;20418;-74
2023/08/02 16:08:05;;;;;;;5.25;3.90;;;;;;;22.99;71.36;99846.44;10522555;28;20041;-73
2023/08/02 16:13:08;;;;;;;4.53;3.35;;;;;;;22.93;67.91;99850.78;10529512;28;20053;-75
2023/08/02 16:18:13;;;;;;;5.70;2.75;;;;;;;22.81;63.91;99840.63;10537591;28;20040;-75
2023/08/02 16:23:15;;;;;;;4.20;3.25;;;;;;;22.81;64.60;99845.41;10543469;28;20040;-75
2023/08/02 16:28:18;;;;;;;3.58;2.30;;;;;;;22.68;63.51;99846.84;10529590;28;20059;-75
2023/08/02 16:33:20;;;;;;;3.88;2.65;;;;;;;22.60;64.34;99845.19;10531574;28;20060;-77
2023/08/02 16:38:23;;;;;;;3.40;2.67;;;;;;;22.31;65.14;99856.00;10508645;28;20491;-77
2023/08/02 16:43:25;;;;;;;2.92;2.50;;;;;;;22.11;66.11;99854.53;10544084;28;20040;-77
2023/08/02 16:48:27;;;;;;;3.10;2.70;;;;;;;21.91;67.41;99848.22;10521225;28;20052;-77
2023/08/02 16:53:29;;;;;;;4.68;3.00;;;;;;;21.72;68.59;99851.94;10522544;28;20581;-77
2023/08/02 16:58:32;;;;;;;5.55;3.63;;;;;;;21.51;68.98;99857.16;10498165;28;20538;-77
2023/08/02 17:03:34;;;;;;;4.13;3.15;;;;;;;21.43;69.89;99858.25;10518973;28;20135;-77
2023/08/02 17:08:37;;;;;;;5.15;3.22;;;;;;;21.48;70.03;99853.13;10530277;28;20053;-77
2023/08/02 17:13:39;;;;;;;5.75;3.20;;;;;;;21.39;70.06;99858.19;10509720;28;20044;-77
2023/08/02 17:18:41;;;;;;;4.88;3.40;;;;;;;21.39;70.70;99854.59;10528784;28;20037;-78
2023/08/02 17:23:49;;;;;;;3.20;2.67;;;;;;;21.52;70.47;99848.44;10529124;28;20047;-79
2023/08/02 17:28:51;;;;;;;4.68;3.42;;;;;;;21.55;70.51;99852.47;10507313;28;20048;-79
2023/08/02 17:33:55;;;;;;;3.83;2.45;;;;;;;21.64;70.19;99850.19;10491122;28;20032;-78
2023/08/02 17:38:57;;;;;;;3.60;2.80;;;;;;;21.59;70.41;99856.91;10528654;28;20040;-78
2023/08/02 17:43:59;;;;;;;4.60;3.00;;;;;;;21.52;70.83;99865.19;10527443;28;20051;-79
2023/08/02 17:49:02;;;;;;;9.02;3.70;;;;;;;21.43;71.52;99872.19;10530741;28;20128;-78
2023/08/02 17:54:04;;;;;;;6.05;3.60;;;;;;;21.36;71.20;99862.53;10470974;28;20049;-77
2023/08/02 17:59:07;;;;;;;4.03;3.22;;;;;;;21.22;71.58;99867.81;10532344;28;20056;-75
2023/08/02 18:04:12;;;;;;;5.07;3.80;;;;;;;21.24;71.91;99873.03;10518307;28;20052;-76
2023/08/02 18:09:15;;;;;;;5.18;3.05;;;;;;;21.28;72.26;99874.72;10526661;28;20052;-75
2023/08/02 18:14:18;;;;;;;9.70;4.18;;;;;;;21.31;72.58;99873.19;10528114;28;20406;-75
2023/08/02 18:19:20;;;;;;;4.63;3.63;;;;;;;21.28;73.14;99883.09;10475099;28;20044;-76
2023/08/02 18:24:22;;;;;;;5.07;3.67;;;;;;;21.27;73.17;99881.50;10562770;28;20063;-76
2023/08/02 18:29:27;;;;;;;4.90;3.70;;;;;;;21.26;73.55;99885.47;10505094;28;20049;-76
2023/08/02 18:34:29;;;;;;;5.05;4.03;;;;;;;21.14;75.55;99896.75;10514067;28;20419;-74
2023/08/02 18:39:36;;;;;;;6.15;4.55;;;;;;;20.91;78.40;99893.94;10529681;28;20044;-78
2023/08/02 18:44:39;;;;;;;10.93;5.60;;;;;;;20.71;79.89;99898.72;10505210;28;20040;-76
2023/08/02 18:49:51;;;;;;;7.45;4.90;;;;;;;20.72;80.17;99891.19;10510964;28;20056;-78
2023/08/02 18:54:54;;;;;;;6.80;4.32;;;;;;;20.70;80.40;99891.53;10529667;28;20044;-79
2023/08/02 18:59:56;;;;;;;6.82;4.80;;;;;;;20.58;81.08;99893.66;10530329;28;20074;-79
2023/08/02 19:04:58;;;;;;;9.80;4.30;;;;;;;20.64;81.90;99904.16;10503193;28;20498;-78
2023/08/02 19:10:03;;;;;;;6.95;4.75;;;;;;;20.42;82.73;99921.59;10492561;28;20044;-77
2023/08/02 19:15:14;;;;;;;7.13;4.80;;;;;;;19.90;86.51;99913.59;10488693;28;20048;-78
2023/08/02 19:20:17;;;;;;;4.47;3.92;;;;;;;19.89;87.24;99901.66;10522931;28;20036;-78
2023/08/02 19:25:21;;;;;;;6.32;4.30;;;;;;;19.81;85.39;99905.47;10523173;28;20067;-77
2023/08/02 19:30:24;;;;;;;5.93;4.30;;;;;;;19.76;85.47;99905.72;10506697;28;20044;-78
2023/08/02 19:35:31;;;;;;;5.35;4.22;;;;;;;19.82;85.27;99893.16;10487091;28;20049;-77
2023/08/02 19:40:33;;;;;;;7.50;4.47;;;;;;;19.89;85.20;99893.31;10503772;28;20052;-76
2023/08/02 19:45:36;;;;;;;6.80;5.05;;;;;;;19.78;85.24;99895.00;10513819;28;20660;-78
2023/08/02 19:50:38;;;;;;;5.85;4.70;;;;;;;19.71;86.05;99904.00;10493614;28;20045;-76
2023/08/02 19:55:42;;;;;;;5.97;4.22;;;;;;;19.76;86.30;99891.78;10520498;28;20044;-77
2023/08/02 20:00:50;;;;;;;6.80;4.75;;;;;;;19.65;87.13;99904.66;10493070;28;20051;-79
2023/08/02 20:05:57;;;;;;;6.30;4.80;;;;;;;19.56;87.09;99899.25;10493139;28;20048;-78
2023/08/02 20:11:06;;;;;;;5.15;4.45;;;;;;;19.47;87.43;99901.41;10521615;28;20051;-75
2023/08/02 20:16:22;;;;;;;5.38;4.43;;;;;;;19.50;87.25;99893.13;10531559;28;20041;-73
2023/08/02 20:21:24;;;;;;;6.53;4.55;;;;;;;19.47;87.10;99887.47;10521883;28;20041;-73
2023/08/02 20:26:27;;;;;;;6.78;5.03;;;;;;;19.45;87.33;99890.63;10514020;28;20044;-75
2023/08/02 20:31:36;;;;;;;7.05;5.00;;;;;;;19.49;86.85;99885.94;10508515;28;20056;-75
2023/08/02 20:36:39;;;;;;;6.57;5.03;;;;;;;19.52;86.13;99876.06;10528392;28;20063;-75
2023/08/02 20:41:42;;;;;;;7.50;5.22;;;;;;;19.53;86.23;99895.19;10495933;28;20487;-75
2023/08/02 20:46:45;;;;;;;7.45;4.78;;;;;;;19.51;86.08;99897.53;10522713;28;20392;-76
2023/08/02 20:51:47;;;;;;;5.60;4.22;;;;;;;19.52;86.02;99899.13;10519546;28;20128;-76
2023/08/02 20:56:50;;;;;;;7.50;4.28;;;;;;;19.62;85.40;99905.38;10522077;28;20048;-74
2023/08/02 21:01:53;;;;;;;6.47;4.63;;;;;;;19.52;85.97;99910.28;10526936;28;20468;-75
2023/08/02 21:06:58;;;;;;;9.35;4.75;;;;;;;19.63;85.66;99915.34;10506735;28;20060;-75
2023/08/02 21:12:03;;;;;;;6.40;4.53;;;;;;;19.69;84.43;99914.69;10489166;28;20040;-75
2023/08/02 21:17:08;;;;;;;5.78;3.83;;;;;;;19.91;84.04;99904.06;10523606;28;20056;-76
2023/08/02 21:22:10;;;;;;;6.50;4.75;;;;;;;19.77;84.50;99908.13;10502137;28;20053;-77
2023/08/02 21:27:13;;;;;;;5.25;4.47;;;;;;;19.76;84.35;99911.28;10509842;28;20063;-78
2023/08/02 21:32:15;;;;;;;7.25;4.40;;;;;;;19.98;83.07;99912.63;10495745;28;20048;-77
2023/08/02 21:37:17;;;;;;;6.53;4.63;;;;;;;20.08;83.28;99909.25;10525603;28;20044;-77
2023/08/02 21:42:21;;;;;;;8.52;4.88;;;;;;;20.06;82.94;99920.75;10530886;28;20043;-77
2023/08/02 21:47:24;;;;;;;7.32;5.07;;;;;;;20.00;83.01;99938.94;10504543;28;20044;-77
2023/08/02 21:52:27;;;;;;;7.65;5.35;;;;;;;19.99;82.66;99944.88;10515351;28;20055;-75
2023/08/02 21:57:37;;;;;;;8.00;5.78;;;;;;;19.97;83.55;99941.63;10514410;28;20045;-75
2023/08/02 22:02:40;;;;;;;6.78;4.47;;;;;;;19.95;84.46;99949.50;10510235;28;20048;-76
2023/08/02 22:07:43;;;;;;;7.38;5.00;;;;;;;20.03;83.37;99968.84;10491710;28;20549;-74
2023/08/02 22:12:46;;;;;;;11.52;4.68;;;;;;;20.18;82.96;99964.41;10521585;28;20033;-75
2023/08/02 22:17:50;;;;;;;4.40;3.67;;;;;;;20.31;82.31;99967.91;10526682;28;20502;-74
2023/08/02 22:22:52;;;;;;;4.07;3.50;;;;;;;20.25;81.83;99981.28;10519533;28;20530;-77
2023/08/02 22:27:54;;;;;;;5.80;4.00;;;;;;;20.03;83.07;99974.41;10500424;28;20041;-75
2023/08/02 22:32:57;;;;;;;3.70;3.22;;;;;;;19.99;84.16;99975.50;10493009;28;20419;-75
2023/08/02 22:37:59;;;;;;;4.35;3.63;;;;;;;19.93;84.73;99965.78;10500331;28;20044;-76
2023/08/02 22:43:03;;;;;;;4.65;3.42;;;;;;;19.93;84.33;99966.59;10499470;28;20052;-76
2023/08/02 22:48:06;;;;;;;5.32;3.30;;;;;;;19.92;85.67;99964.97;10542261;28;20135;-76
2023/08/02 22:53:08;;;;;;;4.80;3.35;;;;;;;19.82;85.96;99973.88;10496195;28;20099;-76
2023/08/02 22:58:12;;;;;;;6.28;3.50;;;;;;;19.89;86.26;99974.06;10505359;28;20415;-76
2023/08/02 23:03:42;;;;;;;3.83;3.45;;;;;;;19.75;87.64;99993.19;10500202;28;20051;-75
2023/08/02 23:08:44;;;;;;;4.18;3.65;;;;;;;19.74;87.93;99977.63;10473371;28;20049;-76
2023/08/02 23:13:48;;;;;;;4.53;3.63;;;;;;;19.70;88.53;99971.19;10487484;28;20517;-76
2023/08/02 23:18:55;;;;;;;5.53;3.78;;;;;;;19.62;89.56;99963.81;10526883;28;20044;-76
2023/08/02 23:23:58;;;;;;;4.30;3.90;;;;;;;19.72;90.44;99991.13;10503030;28;20056;-76
2023/08/02 23:29:01;;;;;;;5.15;3.85;;;;;;;19.66;90.76;99992.56;10524058;28;20511;-76